sensor_id;sensor_type;location;lat;lon;timestamp;pressure;altitude;pressure_sealevel;temperature;humidity
58739;BME280;44512;53.046;18.604;2023-04-26T00:04:43;100978.87;;;9.37;51.84
58739;BME280;44512;53.046;18.604;2023-04-26T00:15:11;100976.06;;;9.16;52.30
58739;BME280;44512;53.046;18.604;2023-04-26T00:25:40;100978.93;;;9.00;52.60
58739;BME280;44512;53.046;18.604;2023-04-26T00:36:09;100992.50;;;8.92;52.94
58739;BME280;44512;53.046;18.604;2023-04-26T00:46:37;101008.12;;;8.81;53.03
58739;BME280;44512;53.046;18.604;2023-04-26T00:57:06;100991.52;;;8.70;53.34
58739;BME280;44512;53.046;18.604;2023-04-26T01:07:35;101000.45;;;8.70;53.52
58739;BME280;44512;53.046;18.604;2023-04-26T01:18:02;100999.48;;;8.63;53.50
58739;BME280;44512;53.046;18.604;2023-04-26T01:28:33;101003.94;;;8.56;53.59
58739;BME280;44512;53.046;18.604;2023-04-26T01:38:59;101016.77;;;8.54;53.60
58739;BME280;44512;53.046;18.604;2023-04-26T01:49:28;101017.50;;;8.48;53.48
58739;BME280;44512;53.046;18.604;2023-04-26T01:59:55;101013.49;;;8.35;53.50
58739;BME280;44512;53.046;18.604;2023-04-26T02:10:24;101018.04;;;8.12;53.67
58739;BME280;44512;53.046;18.604;2023-04-26T02:20:52;101013.07;;;7.93;54.25
58739;BME280;44512;53.046;18.604;2023-04-26T02:31:21;100999.77;;;7.91;54.45
58739;BME280;44512;53.046;18.604;2023-04-26T02:41:49;101002.60;;;7.98;54.44
58739;BME280;44512;53.046;18.604;2023-04-26T02:52:18;100993.49;;;7.99;54.57
58739;BME280;44512;53.046;18.604;2023-04-26T03:02:46;101011.03;;;7.95;54.64
58739;BME280;44512;53.046;18.604;2023-04-26T03:13:14;101016.42;;;7.95;54.71
58739;BME280;44512;53.046;18.604;2023-04-26T03:23:43;101026.74;;;7.91;54.89
58739;BME280;44512;53.046;18.604;2023-04-26T03:34:11;101031.27;;;7.91;54.83
58739;BME280;44512;53.046;18.604;2023-04-26T03:44:39;101034.00;;;7.82;54.90
58739;BME280;44512;53.046;18.604;2023-04-26T03:55:09;101048.18;;;7.76;55.10
58739;BME280;44512;53.046;18.604;2023-04-26T04:05:36;101056.28;;;7.68;55.31
58739;BME280;44512;53.046;18.604;2023-04-26T04:16:05;101062.55;;;7.52;55.73
58739;BME280;44512;53.046;18.604;2023-04-26T04:26:33;101066.46;;;7.34;56.34
58739;BME280;44512;53.046;18.604;2023-04-26T04:37:01;101070.52;;;7.21;56.94
58739;BME280;44512;53.046;18.604;2023-04-26T04:47:30;101074.74;;;7.16;57.36
58739;BME280;44512;53.046;18.604;2023-04-26T04:57:58;101084.68;;;7.15;57.58
58739;BME280;44512;53.046;18.604;2023-04-26T05:08:27;101085.52;;;7.16;57.59
58739;BME280;44512;53.046;18.604;2023-04-26T05:18:55;101093.08;;;7.20;57.26
58739;BME280;44512;53.046;18.604;2023-04-26T05:29:32;101098.11;;;7.23;57.00
58739;BME280;44512;53.046;18.604;2023-04-26T05:39:52;101106.38;;;7.22;56.71
58739;BME280;44512;53.046;18.604;2023-04-26T05:50:20;101125.04;;;7.23;56.32
58739;BME280;44512;53.046;18.604;2023-04-26T06:00:49;101111.42;;;7.25;56.09
58739;BME280;44512;53.046;18.604;2023-04-26T06:11:17;101122.35;;;7.31;55.77
58739;BME280;44512;53.046;18.604;2023-04-26T06:21:45;101098.12;;;7.40;55.03
58739;BME280;44512;53.046;18.604;2023-04-26T06:32:14;101118.14;;;7.45;54.61
58739;BME280;44512;53.046;18.604;2023-04-26T06:42:42;101116.94;;;7.56;54.07
58739;BME280;44512;53.046;18.604;2023-04-26T06:53:11;101112.87;;;7.68;53.13
58739;BME280;44512;53.046;18.604;2023-04-26T07:03:39;101122.95;;;7.74;51.87
58739;BME280;44512;53.046;18.604;2023-04-26T07:14:09;101115.19;;;7.79;50.36
58739;BME280;44512;53.046;18.604;2023-04-26T07:24:36;101130.66;;;7.86;50.16
58739;BME280;44512;53.046;18.604;2023-04-26T07:35:06;101127.63;;;7.97;48.90
58739;BME280;44512;53.046;18.604;2023-04-26T07:45:32;101139.88;;;8.07;47.18
58739;BME280;44512;53.046;18.604;2023-04-26T07:56:04;101126.02;;;8.19;46.78
58739;BME280;44512;53.046;18.604;2023-04-26T08:06:29;101151.41;;;8.32;46.33
58739;BME280;44512;53.046;18.604;2023-04-26T08:16:57;101143.98;;;8.43;45.04
58739;BME280;44512;53.046;18.604;2023-04-26T08:27:26;101147.84;;;8.48;44.04
58739;BME280;44512;53.046;18.604;2023-04-26T08:37:54;101160.42;;;8.56;42.21
58739;BME280;44512;53.046;18.604;2023-04-26T08:48:23;101144.20;;;8.64;42.09
58739;BME280;44512;53.046;18.604;2023-04-26T08:58:52;101177.37;;;8.73;41.48
58739;BME280;44512;53.046;18.604;2023-04-26T09:09:20;101174.13;;;8.77;42.22
58739;BME280;44512;53.046;18.604;2023-04-26T09:19:48;101179.50;;;8.85;43.44
58739;BME280;44512;53.046;18.604;2023-04-26T09:30:16;101192.27;;;8.92;42.95
58739;BME280;44512;53.046;18.604;2023-04-26T09:40:46;101205.12;;;8.90;42.85
58739;BME280;44512;53.046;18.604;2023-04-26T09:51:13;101216.58;;;8.92;43.71
58739;BME280;44512;53.046;18.604;2023-04-26T10:01:41;101214.83;;;8.99;44.58
58739;BME280;44512;53.046;18.604;2023-04-26T10:12:11;101232.87;;;9.06;44.56
58739;BME280;44512;53.046;18.604;2023-04-26T10:22:50;101231.66;;;9.09;44.58
58739;BME280;44512;53.046;18.604;2023-04-26T10:33:10;101229.26;;;9.14;44.39
58739;BME280;44512;53.046;18.604;2023-04-26T10:43:35;101238.66;;;9.26;44.42
58739;BME280;44512;53.046;18.604;2023-04-26T10:54:03;101236.36;;;9.38;43.44
58739;BME280;44512;53.046;18.604;2023-04-26T11:15:00;101256.71;;;9.49;41.98
58739;BME280;44512;53.046;18.604;2023-04-26T11:25:28;101260.06;;;9.51;41.50
58739;BME280;44512;53.046;18.604;2023-04-26T11:35:57;101273.57;;;9.51;41.13
58739;BME280;44512;53.046;18.604;2023-04-26T11:46:25;101283.55;;;9.50;40.44
58739;BME280;44512;53.046;18.604;2023-04-26T11:56:54;101295.57;;;9.48;40.18
58739;BME280;44512;53.046;18.604;2023-04-26T12:07:22;101298.92;;;9.50;40.43
58739;BME280;44512;53.046;18.604;2023-04-26T12:18:00;101309.30;;;9.61;40.30
58739;BME280;44512;53.046;18.604;2023-04-26T12:28:19;101298.76;;;9.74;39.28
58739;BME280;44512;53.046;18.604;2023-04-26T12:38:47;101286.18;;;9.81;38.96
58739;BME280;44512;53.046;18.604;2023-04-26T12:49:15;101299.45;;;9.91;38.74
58739;BME280;44512;53.046;18.604;2023-04-26T12:59:44;101310.94;;;9.93;39.04
58739;BME280;44512;53.046;18.604;2023-04-26T13:10:12;101313.11;;;9.98;37.78
58739;BME280;44512;53.046;18.604;2023-04-26T13:20:40;101301.55;;;10.04;36.61
58739;BME280;44512;53.046;18.604;2023-04-26T13:31:09;101314.25;;;10.18;36.41
58739;BME280;44512;53.046;18.604;2023-04-26T13:41:37;101330.96;;;10.22;36.32
58739;BME280;44512;53.046;18.604;2023-04-26T13:52:06;101331.48;;;10.25;36.88
58739;BME280;44512;53.046;18.604;2023-04-26T14:02:34;101337.27;;;10.37;36.75
58739;BME280;44512;53.046;18.604;2023-04-26T14:13:02;101335.14;;;10.47;36.85
58739;BME280;44512;53.046;18.604;2023-04-26T14:23:31;101345.70;;;10.57;36.75
58739;BME280;44512;53.046;18.604;2023-04-26T14:33:59;101335.53;;;10.74;36.49
58739;BME280;44512;53.046;18.604;2023-04-26T14:49:41;101336.91;;;11.14;35.62
58739;BME280;44512;53.046;18.604;2023-04-26T15:00:10;101385.31;;;11.17;33.95
58739;BME280;44512;53.046;18.604;2023-04-26T15:10:37;101358.66;;;11.20;34.78
58739;BME280;44512;53.046;18.604;2023-04-26T15:21:06;101366.70;;;11.65;34.61
58739;BME280;44512;53.046;18.604;2023-04-26T15:31:34;101368.82;;;12.06;33.71
58739;BME280;44512;53.046;18.604;2023-04-26T15:42:03;101369.71;;;12.13;32.80
58739;BME280;44512;53.046;18.604;2023-04-26T15:52:35;101368.55;;;12.22;32.40
58739;BME280;44512;53.046;18.604;2023-04-26T16:02:59;101375.80;;;12.15;32.01
58739;BME280;44512;53.046;18.604;2023-04-26T16:13:28;101383.81;;;12.02;32.61
58739;BME280;44512;53.046;18.604;2023-04-26T16:23:56;101403.70;;;11.87;32.56
58739;BME280;44512;53.046;18.604;2023-04-26T16:34:24;101385.42;;;11.96;33.12
58739;BME280;44512;53.046;18.604;2023-04-26T16:44:53;101414.02;;;11.98;33.25
58739;BME280;44512;53.046;18.604;2023-04-26T16:55:21;101424.96;;;11.84;33.45
58739;BME280;44512;53.046;18.604;2023-04-26T17:05:49;101436.44;;;11.71;34.34
58739;BME280;44512;53.046;18.604;2023-04-26T17:16:18;101446.75;;;11.61;34.91
58739;BME280;44512;53.046;18.604;2023-04-26T17:26:46;101452.02;;;11.47;34.88
58739;BME280;44512;53.046;18.604;2023-04-26T17:37:15;101457.05;;;11.36;34.98
58739;BME280;44512;53.046;18.604;2023-04-26T17:47:43;101479.01;;;11.26;35.25
58739;BME280;44512;53.046;18.604;2023-04-26T17:58:11;101477.80;;;11.14;35.72
58739;BME280;44512;53.046;18.604;2023-04-26T18:08:40;101483.77;;;11.09;36.04
58739;BME280;44512;53.046;18.604;2023-04-26T18:19:08;101496.84;;;11.06;36.11
58739;BME280;44512;53.046;18.604;2023-04-26T18:29:36;101515.90;;;10.98;36.53
58739;BME280;44512;53.046;18.604;2023-04-26T18:40:06;101521.77;;;10.86;37.14
58739;BME280;44512;53.046;18.604;2023-04-26T18:50:33;101526.89;;;10.81;37.65
58739;BME280;44512;53.046;18.604;2023-04-26T19:01:02;101534.03;;;10.74;38.16
58739;BME280;44512;53.046;18.604;2023-04-26T19:11:30;101542.90;;;10.68;38.59
58739;BME280;44512;53.046;18.604;2023-04-26T19:21:58;101545.19;;;10.56;39.13
58739;BME280;44512;53.046;18.604;2023-04-26T19:32:27;101550.83;;;10.47;39.68
58739;BME280;44512;53.046;18.604;2023-04-26T19:42:55;101553.96;;;10.35;40.18
58739;BME280;44512;53.046;18.604;2023-04-26T19:53:24;101555.34;;;10.23;40.62
58739;BME280;44512;53.046;18.604;2023-04-26T20:03:52;101557.80;;;10.10;41.03
58739;BME280;44512;53.046;18.604;2023-04-26T20:14:20;101564.77;;;9.96;41.38
58739;BME280;44512;53.046;18.604;2023-04-26T20:24:49;101565.34;;;9.83;41.81
58739;BME280;44512;53.046;18.604;2023-04-26T20:35:17;101571.13;;;9.72;42.15
58739;BME280;44512;53.046;18.604;2023-04-26T20:45:46;101569.80;;;9.60;42.53
58739;BME280;44512;53.046;18.604;2023-04-26T20:56:14;101582.01;;;9.48;42.72
58739;BME280;44512;53.046;18.604;2023-04-26T21:06:42;101589.64;;;9.36;42.74
58739;BME280;44512;53.046;18.604;2023-04-26T21:17:11;101595.22;;;9.26;42.83
58739;BME280;44512;53.046;18.604;2023-04-26T21:27:39;101597.59;;;9.13;43.18
58739;BME280;44512;53.046;18.604;2023-04-26T21:38:08;101608.05;;;8.92;43.87
58739;BME280;44512;53.046;18.604;2023-04-26T21:48:36;101621.17;;;8.62;44.40
58739;BME280;44512;53.046;18.604;2023-04-26T21:59:04;101631.53;;;8.32;45.00
58739;BME280;44512;53.046;18.604;2023-04-26T22:09:33;101628.75;;;8.16;45.54
58739;BME280;44512;53.046;18.604;2023-04-26T22:20:01;101637.80;;;7.99;45.79
58739;BME280;44512;53.046;18.604;2023-04-26T22:30:30;101648.50;;;7.82;46.37
58739;BME280;44512;53.046;18.604;2023-04-26T22:40:58;101662.24;;;7.71;46.76
58739;BME280;44512;53.046;18.604;2023-04-26T22:51:26;101661.91;;;7.74;46.82
58739;BME280;44512;53.046;18.604;2023-04-26T23:01:55;101667.84;;;7.78;46.94
58739;BME280;44512;53.046;18.604;2023-04-26T23:12:24;101664.97;;;7.79;47.04
58739;BME280;44512;53.046;18.604;2023-04-26T23:22:51;101673.90;;;7.80;47.17
58739;BME280;44512;53.046;18.604;2023-04-26T23:33:20;101655.04;;;7.80;47.35
58739;BME280;44512;53.046;18.604;2023-04-26T23:43:48;101674.06;;;7.78;47.49
58739;BME280;44512;53.046;18.604;2023-04-26T23:54:17;101664.77;;;7.73;47.68
